Airport Information

KKLS - Kelso Longview Airport

KKLS 251056Z AUTO 00000KT 10SM CLR 04/02 A3002 RMK AO2 SLP171 T00390022


  • General Information

  • Coordinates: N 46°7'4"/ W 122°53'54"
  • Location: N/A
  • Surveyed Elevation: 20 MSL

Operations

Flow Name Active Runways Conditions

Green background denotes normal operations.


Common Frequencies

Callsign Frequency Position Name

More at the Document Center


Charts

Name Description Cycle
Name Description Cycle